Time;durP1;ratioP1;P1;durP2;ratioP2;P2;SDS_P1;SDS_P2;PMS_P1;PMS_P2;Temp;Humidity;BMP_temperature;BMP_pressure;BME280_temperature;BME280_humidity;BME280_pressure;Samples;Min_cycle;Max_cycle;Signal;HPM_P1;HPM_P2
2021/08/05 00:01:22;;;;;;;2.78;2.10;;;14.90;99.90;;;;;;5095834;28;20055;-78
2021/08/05 00:03:48;;;;;;;4.53;2.20;;;14.90;99.90;;;;;;5076553;28;20020;-77
2021/08/05 00:06:13;;;;;;;4.00;2.35;;;14.80;99.90;;;;;;5076746;28;20016;-78
2021/08/05 00:08:39;;;;;;;4.32;1.98;;;14.80;99.90;;;;;;5095594;28;20489;-80
2021/08/05 00:11:05;;;;;;;3.67;2.17;;;14.80;99.90;;;;;;5076586;28;20115;-80
2021/08/05 00:13:30;;;;;;;3.63;2.42;;;14.70;99.90;;;;;;5095383;28;20511;-80
2021/08/05 00:15:56;;;;;;;2.75;1.70;;;14.70;99.90;;;;;;5090002;22;20477;-77
2021/08/05 00:18:22;;;;;;;5.03;1.95;;;14.60;99.90;;;;;;5094677;28;20047;-77
2021/08/05 00:20:48;;;;;;;3.15;1.90;;;14.50;99.90;;;;;;5076000;28;20042;-77
2021/08/05 00:23:14;;;;;;;2.80;2.00;;;14.50;99.90;;;;;;5076576;28;20028;-78
2021/08/05 00:25:39;;;;;;;2.35;2.05;;;14.50;99.90;;;;;;5094674;28;20496;-76
2021/08/05 00:28:05;;;;;;;5.13;2.55;;;14.50;99.90;;;;;;5094611;28;20024;-76
2021/08/05 00:30:31;;;;;;;2.97;2.05;;;14.50;99.90;;;;;;5093985;28;20085;-76
2021/08/05 00:32:56;;;;;;;2.67;1.70;;;14.40;99.90;;;;;;5094284;28;20032;-78
2021/08/05 00:35:22;;;;;;;3.03;1.55;;;14.30;99.90;;;;;;5094112;28;20382;-76
2021/08/05 00:37:47;;;;;;;5.53;2.30;;;14.30;99.90;;;;;;5075953;28;20012;-77
2021/08/05 00:40:13;;;;;;;2.90;2.25;;;14.30;99.90;;;;;;5094105;28;20028;-77
2021/08/05 00:42:39;;;;;;;2.40;1.67;;;14.30;99.90;;;;;;5076098;28;20016;-77
2021/08/05 00:45:05;;;;;;;2.38;1.60;;;14.30;99.90;;;;;;5094043;28;20420;-77
2021/08/05 00:47:31;;;;;;;2.42;1.85;;;14.30;99.90;;;;;;5094236;28;20039;-77
2021/08/05 00:49:56;;;;;;;4.28;1.48;;;14.30;99.90;;;;;;5076015;28;20016;-77
2021/08/05 00:52:22;;;;;;;3.20;2.33;;;14.30;99.90;;;;;;5093883;28;20032;-77
2021/08/05 00:54:48;;;;;;;4.65;1.90;;;14.30;99.90;;;;;;5075771;28;20024;-77
2021/08/05 00:57:14;;;;;;;6.07;2.70;;;14.20;99.90;;;;;;5094290;28;20020;-76
2021/08/05 00:59:39;;;;;;;3.17;1.60;;;14.20;99.90;;;;;;5093970;28;20027;-76
2021/08/05 01:02:16;;;;;;;2.63;2.00;;;14.20;99.90;;;;;;5094124;28;20091;-78
2021/08/05 01:04:45;;;;;;;3.55;2.40;;;14.20;99.90;;;;;;5093771;28;20032;-78
2021/08/05 01:07:20;;;;;;;2.40;1.98;;;14.20;99.90;;;;;;5076130;28;20024;-78
2021/08/05 01:10:16;;;;;;;4.85;2.42;;;14.20;99.90;;;;;;5094574;28;20028;-78
2021/08/05 01:12:59;;;;;;;2.58;1.65;;;14.20;99.90;;;;;;5094398;28;20048;-77
2021/08/05 01:15:27;;;;;;;3.67;2.42;;;14.20;99.90;;;;;;5075527;28;20165;-77
2021/08/05 01:17:58;;;;;;;3.38;1.95;;;14.20;99.90;;;;;;5095444;28;20020;-78
2021/08/05 01:20:26;;;;;;;3.03;2.00;;;14.20;99.90;;;;;;5101622;28;20358;-78
2021/08/05 01:23:22;;;;;;;3.47;2.30;;;14.20;99.90;;;;;;5101397;28;20020;-80
2021/08/05 01:26:05;;;;;;;3.28;1.88;;;14.10;99.90;;;;;;5082847;28;20073;-80
2021/08/05 01:28:33;;;;;;;3.00;1.90;;;14.10;99.90;;;;;;5100268;28;20020;-76
2021/08/05 01:31:02;;;;;;;2.88;1.50;;;14.10;99.90;;;;;;5100184;28;20054;-76
2021/08/05 01:33:29;;;;;;;2.83;2.07;;;14.10;99.90;;;;;;5100874;28;20019;-78
2021/08/05 01:35:56;;;;;;;2.63;1.95;;;14.00;99.90;;;;;;5100604;28;20016;-77
2021/08/05 01:38:22;;;;;;;1.90;1.63;;;13.90;99.90;;;;;;5082146;28;20074;-80
2021/08/05 01:40:50;;;;;;;2.60;1.50;;;13.90;99.90;;;;;;5082571;28;20073;-77
2021/08/05 01:43:17;;;;;;;3.90;1.98;;;13.90;99.90;;;;;;5100536;28;20475;-77
2021/08/05 01:45:44;;;;;;;2.78;2.13;;;13.80;99.90;;;;;;5082429;28;20020;-77
2021/08/05 01:48:12;;;;;;;3.40;2.20;;;13.80;99.90;;;;;;5082098;28;20081;-76
2021/08/05 01:50:41;;;;;;;3.22;1.73;;;13.70;99.90;;;;;;5081672;28;20020;-76
2021/08/05 01:53:07;;;;;;;2.72;1.48;;;13.70;99.90;;;;;;5100005;28;20024;-76
2021/08/05 01:55:32;;;;;;;2.50;1.60;;;13.60;99.90;;;;;;5099914;28;20082;-77
2021/08/05 01:57:58;;;;;;;3.25;1.60;;;13.60;99.90;;;;;;5100575;28;20540;-77
2021/08/05 02:00:24;;;;;;;2.05;1.60;;;13.50;99.90;;;;;;5100170;28;20040;-78
2021/08/05 02:02:53;;;;;;;2.60;1.75;;;13.50;99.90;;;;;;5100254;28;20054;-77
2021/08/05 02:05:40;;;;;;;3.45;1.98;;;13.50;99.90;;;;;;5100208;28;20461;-80
2021/08/05 02:08:09;;;;;;;3.53;2.03;;;13.50;99.90;;;;;;5100335;28;20098;-75
2021/08/05 02:10:39;;;;;;;2.67;2.25;;;13.40;99.90;;;;;;5081416;28;20043;-76
2021/08/05 02:13:12;;;;;;;2.20;1.58;;;13.40;99.90;;;;;;5099997;28;20099;-77
2021/08/05 02:15:42;;;;;;;4.88;1.50;;;13.40;99.90;;;;;;5099863;28;20028;-75
2021/08/05 02:18:10;;;;;;;2.80;2.10;;;13.40;99.90;;;;;;5094542;22;20044;-77
2021/08/05 02:20:36;;;;;;;1.65;1.42;;;13.30;99.90;;;;;;5100603;28;20068;-78
2021/08/05 02:23:02;;;;;;;4.15;2.20;;;13.60;99.90;;;;;;5100551;28;20023;-76
2021/08/05 02:25:29;;;;;;;2.78;1.67;;;13.30;99.90;;;;;;5081503;28;20032;-75
2021/08/05 02:27:55;;;;;;;1.73;1.40;;;13.30;99.90;;;;;;5099888;28;20067;-75
2021/08/05 02:30:22;;;;;;;2.30;1.85;;;13.30;99.90;;;;;;5078415;28;20020;-76
2021/08/05 02:32:48;;;;;;;2.58;1.70;;;13.20;99.90;;;;;;5096180;28;20111;-75
2021/08/05 02:35:15;;;;;;;5.30;2.00;;;13.20;99.90;;;;;;5096181;28;20035;-75
2021/08/05 02:37:41;;;;;;;1.83;1.35;;;13.20;99.90;;;;;;5077940;28;20024;-75
2021/08/05 02:40:08;;;;;;;3.25;1.75;;;13.20;99.90;;;;;;5096009;28;20413;-75
2021/08/05 02:42:34;;;;;;;3.47;1.65;;;13.10;99.90;;;;;;5077834;28;20020;-75
2021/08/05 02:45:00;;;;;;;2.22;1.88;;;13.10;99.90;;;;;;5095933;28;20024;-75
2021/08/05 02:47:26;;;;;;;2.63;1.58;;;13.10;99.90;;;;;;5096058;28;20030;-78
2021/08/05 02:49:54;;;;;;;3.25;1.88;;;13.00;99.90;;;;;;5078460;28;20020;-77
2021/08/05 02:52:21;;;;;;;1.85;1.50;;;13.10;99.90;;;;;;5077683;28;20431;-77
2021/08/05 02:54:47;;;;;;;6.93;1.95;;;13.10;99.90;;;;;;5095851;28;20485;-77
2021/08/05 02:57:14;;;;;;;3.53;2.38;;;13.10;99.90;;;;;;5096304;28;20363;-77
2021/08/05 02:59:40;;;;;;;3.03;2.00;;;13.10;99.90;;;;;;5096892;28;20106;-77
2021/08/05 03:02:06;;;;;;;2.42;1.60;;;13.10;99.90;;;;;;5078086;28;20028;-78
2021/08/05 03:04:33;;;;;;;3.67;2.35;;;13.20;99.90;;;;;;5096217;28;20100;-77
2021/08/05 03:06:59;;;;;;;2.45;1.95;;;13.20;99.90;;;;;;5078301;28;20020;-77
2021/08/05 03:09:25;;;;;;;3.45;2.20;;;13.20;99.90;;;;;;5096320;28;20047;-77
2021/08/05 03:11:51;;;;;;;2.88;2.08;;;13.20;99.90;;;;;;5095932;28;20020;-77
2021/08/05 03:14:16;;;;;;;4.10;2.15;;;13.20;99.90;;;;;;5096115;28;20470;-77
2021/08/05 03:16:42;;;;;;;2.70;2.22;;;13.20;99.90;;;;;;5095785;28;20081;-78
2021/08/05 03:19:07;;;;;;;3.15;2.47;;;13.20;99.90;;;;;;5096429;28;20024;-80
2021/08/05 03:21:33;;;;;;;5.57;2.90;;;13.20;99.90;;;;;;5077414;28;20056;-76
2021/08/05 03:23:59;;;;;;;3.53;2.20;;;13.20;99.90;;;;;;5096146;28;20035;-77
2021/08/05 03:26:25;;;;;;;4.45;2.78;;;13.20;99.90;;;;;;5095453;28;20081;-75
2021/08/05 03:28:50;;;;;;;5.07;2.75;;;13.20;99.90;;;;;;5095997;28;20028;-79
2021/08/05 03:31:16;;;;;;;3.30;2.58;;;13.20;99.90;;;;;;5095215;28;20094;-78
2021/08/05 03:33:41;;;;;;;4.63;2.20;;;13.20;99.90;;;;;;5077016;28;20020;-76
2021/08/05 03:36:07;;;;;;;3.50;2.65;;;13.30;99.90;;;;;;5077269;28;20536;-80
2021/08/05 03:38:32;;;;;;;7.82;2.35;;;13.30;99.90;;;;;;5095403;28;20481;-76
2021/08/05 03:41:01;;;;;;;4.18;3.33;;;13.30;99.90;;;;;;5076674;28;20023;-76
2021/08/05 03:43:27;;;;;;;5.22;3.40;;;13.40;99.90;;;;;;5077187;28;20394;-77
2021/08/05 03:45:52;;;;;;;4.28;3.25;;;13.40;99.90;;;;;;5095570;28;20400;-76
2021/08/05 03:48:18;;;;;;;3.88;2.85;;;13.40;99.90;;;;;;5077079;28;20103;-76
2021/08/05 03:50:43;;;;;;;4.40;3.13;;;13.50;99.90;;;;;;5076896;28;20105;-77
2021/08/05 03:53:09;;;;;;;4.00;3.03;;;13.50;99.90;;;;;;5095046;28;20388;-79
2021/08/05 03:55:35;;;;;;;4.22;3.50;;;13.50;99.90;;;;;;5077592;28;20473;-76
2021/08/05 03:58:00;;;;;;;4.85;3.33;;;13.50;99.90;;;;;;5095460;28;20052;-78
2021/08/05 04:00:26;;;;;;;7.97;3.10;;;13.60;99.90;;;;;;5076920;28;20012;-78
2021/08/05 04:02:51;;;;;;;4.35;3.30;;;13.60;99.90;;;;;;5095105;28;20020;-78
2021/08/05 04:05:17;;;;;;;5.85;2.97;;;13.60;99.90;;;;;;5094975;28;20172;-78
2021/08/05 04:07:42;;;;;;;3.85;3.10;;;13.60;99.90;;;;;;5094953;28;20026;-78
2021/08/05 04:10:09;;;;;;;3.13;2.60;;;13.60;99.90;;;;;;5076649;28;20064;-78
2021/08/05 04:12:34;;;;;;;4.68;3.63;;;13.60;99.90;;;;;;5076769;28;20023;-78
2021/08/05 04:15:00;;;;;;;5.22;3.08;;;13.60;99.90;;;;;;5094868;28;20028;-78
2021/08/05 04:17:25;;;;;;;6.57;3.40;;;13.70;99.90;;;;;;5094879;28;20032;-78
2021/08/05 04:19:51;;;;;;;4.90;3.08;;;13.70;99.90;;;;;;5076516;28;20031;-78
2021/08/05 04:22:16;;;;;;;3.72;2.90;;;13.70;99.90;;;;;;5076595;28;20016;-78
2021/08/05 04:24:42;;;;;;;4.25;2.97;;;13.70;99.90;;;;;;5094741;28;20028;-78
2021/08/05 04:27:07;;;;;;;5.15;3.50;;;13.60;99.90;;;;;;5094552;28;20115;-78
2021/08/05 04:29:33;;;;;;;5.85;4.25;;;13.60;99.90;;;;;;5076307;28;20028;-78
2021/08/05 04:31:58;;;;;;;4.90;3.67;;;13.60;99.90;;;;;;5094643;28;20358;-78
2021/08/05 04:34:24;;;;;;;6.45;3.80;;;13.70;99.90;;;;;;5076572;28;20026;-76
2021/08/05 04:36:50;;;;;;;4.53;3.42;;;13.70;99.90;;;;;;5094174;28;20078;-77
2021/08/05 04:39:15;;;;;;;6.25;3.55;;;13.70;99.90;;;;;;5094345;28;20024;-77
2021/08/05 04:41:41;;;;;;;5.30;2.92;;;13.70;99.90;;;;;;5094024;28;20032;-78
2021/08/05 04:44:06;;;;;;;7.82;3.60;;;13.70;99.90;;;;;;5075999;28;20545;-78
2021/08/05 04:46:32;;;;;;;4.00;3.28;;;13.80;99.90;;;;;;5076030;28;20028;-77
2021/08/05 04:48:57;;;;;;;5.57;3.70;;;13.80;99.90;;;;;;5075957;28;20115;-76
2021/08/05 04:51:23;;;;;;;5.78;4.13;;;13.90;99.90;;;;;;5075479;28;20500;-77
2021/08/05 04:53:49;;;;;;;6.93;4.20;;;13.90;99.90;;;;;;5075166;28;20021;-78
2021/08/05 04:56:14;;;;;;;4.55;3.47;;;14.00;99.90;;;;;;5075627;28;20024;-78
2021/08/05 04:58:39;;;;;;;6.80;4.03;;;14.00;99.90;;;;;;5093689;28;20082;-76
2021/08/05 05:01:05;;;;;;;7.40;4.13;;;14.10;99.90;;;;;;5075710;28;20016;-79
2021/08/05 05:03:31;;;;;;;6.30;4.38;;;14.10;99.90;;;;;;5093965;28;20055;-76
2021/08/05 05:05:57;;;;;;;6.63;4.40;;;14.20;99.90;;;;;;5094224;28;20099;-77
2021/08/05 05:08:24;;;;;;;5.65;3.55;;;14.20;99.90;;;;;;5075900;28;20016;-76
2021/08/05 05:10:53;;;;;;;5.78;4.15;;;14.20;99.90;;;;;;5094114;28;20020;-77
2021/08/05 05:13:19;;;;;;;8.00;4.55;;;14.20;99.90;;;;;;5093681;28;20023;-77
2021/08/05 05:15:45;;;;;;;7.43;4.20;;;14.30;99.90;;;;;;5075798;28;20028;-77
2021/08/05 05:18:13;;;;;;;8.43;4.47;;;14.30;99.90;;;;;;5093678;28;20086;-76
2021/08/05 05:20:39;;;;;;;6.32;4.45;;;14.40;99.90;;;;;;5075969;28;20019;-78
2021/08/05 05:23:07;;;;;;;6.13;4.78;;;14.40;99.90;;;;;;5093711;28;20036;-76
2021/08/05 05:25:36;;;;;;;4.97;3.88;;;14.40;99.90;;;;;;5093580;28;20385;-77
2021/08/05 05:28:03;;;;;;;5.18;4.00;;;14.50;99.90;;;;;;5075523;28;20027;-78
2021/08/05 05:30:28;;;;;;;4.00;3.40;;;14.50;99.90;;;;;;5075804;28;20081;-78
2021/08/05 05:32:54;;;;;;;7.13;4.85;;;14.60;99.90;;;;;;5075731;28;20048;-79
2021/08/05 05:35:20;;;;;;;6.28;4.93;;;14.60;99.90;;;;;;5093941;28;20107;-80
2021/08/05 05:37:48;;;;;;;6.38;4.20;;;14.70;99.90;;;;;;5075808;28;20107;-80
2021/08/05 05:40:14;;;;;;;6.07;4.78;;;16.30;99.90;;;;;;5075704;28;20028;-80
2021/08/05 05:42:40;;;;;;;6.55;4.43;;;14.80;99.90;;;;;;5075954;28;20033;-79
2021/08/05 05:45:07;;;;;;;6.07;4.38;;;14.90;99.90;;;;;;5093473;28;20102;-76
2021/08/05 05:47:33;;;;;;;8.02;4.47;;;14.90;99.90;;;;;;5075190;28;20465;-76
2021/08/05 05:49:58;;;;;;;7.10;4.53;;;15.00;99.90;;;;;;5075251;28;20111;-76
2021/08/05 05:52:24;;;;;;;4.90;3.97;;;15.10;99.90;;;;;;5092905;28;20052;-76
2021/08/05 05:54:50;;;;;;;8.00;4.85;;;15.10;99.90;;;;;;5074865;28;20073;-76
2021/08/05 05:57:15;;;;;;;6.40;4.88;;;15.20;99.90;;;;;;5092951;28;20069;-76
2021/08/05 05:59:41;;;;;;;7.18;5.00;;;15.30;99.90;;;;;;5075962;28;20012;-76
2021/08/05 06:02:07;;;;;;;8.45;5.13;;;15.40;99.90;;;;;;5092819;28;20024;-76
2021/08/05 06:04:33;;;;;;;7.43;4.65;;;15.50;99.90;;;;;;5075748;28;20024;-76
2021/08/05 06:06:58;;;;;;;7.50;4.20;;;15.60;99.90;;;;;;5078510;28;20024;-76
2021/08/05 06:09:24;;;;;;;5.95;4.32;;;15.60;99.90;;;;;;5097140;28;20032;-76
2021/08/05 06:11:49;;;;;;;5.38;4.45;;;15.70;99.90;;;;;;5096646;28;20055;-78
2021/08/05 06:14:15;;;;;;;5.63;4.28;;;15.80;99.90;;;;;;5097204;28;20017;-77
2021/08/05 06:16:41;;;;;;;6.45;4.60;;;15.90;99.90;;;;;;5097622;28;20035;-77
2021/08/05 06:19:07;;;;;;;5.93;4.63;;;15.90;99.90;;;;;;5078926;28;20028;-76
2021/08/05 06:21:32;;;;;;;7.40;5.43;;;16.00;99.90;;;;;;5096899;28;20032;-77
2021/08/05 06:23:58;;;;;;;6.82;4.57;;;16.10;99.90;;;;;;5096904;28;20021;-77
2021/08/05 06:26:25;;;;;;;5.40;4.35;;;16.10;99.90;;;;;;5097155;28;20032;-77
2021/08/05 06:28:51;;;;;;;8.65;4.72;;;16.20;99.90;;;;;;5097057;28;20039;-77
2021/08/05 06:31:18;;;;;;;6.25;4.22;;;16.30;99.90;;;;;;5097233;28;20024;-77
2021/08/05 06:33:51;;;;;;;6.90;5.03;;;16.50;99.90;;;;;;5097327;28;20020;-77
2021/08/05 06:36:20;;;;;;;10.45;6.82;;;16.60;99.90;;;;;;5078602;28;20020;-77
2021/08/05 06:38:46;;;;;;;7.65;5.47;;;16.70;99.90;;;;;;5078563;28;20032;-77
2021/08/05 06:41:12;;;;;;;6.57;5.78;;;16.90;99.90;;;;;;5096642;28;20035;-77
2021/08/05 06:43:37;;;;;;;9.45;5.78;;;17.10;99.90;;;;;;5078493;28;20012;-77
2021/08/05 06:46:03;;;;;;;9.10;5.80;;;17.40;99.90;;;;;;5096902;28;20351;-76
2021/08/05 06:48:28;;;;;;;9.73;5.90;;;17.70;99.90;;;;;;5078261;28;20024;-76
2021/08/05 06:50:54;;;;;;;10.20;5.82;;;17.90;99.90;;;;;;5096407;28;20024;-77
2021/08/05 06:53:20;;;;;;;14.18;6.75;;;18.30;99.90;;;;;;5077929;28;20049;-77
2021/08/05 06:55:46;;;;;;;11.48;7.78;;;18.50;99.90;;;;;;5096151;28;20016;-77
2021/08/05 06:58:12;;;;;;;10.70;7.07;;;18.80;99.90;;;;;;5095844;28;20020;-76
2021/08/05 07:00:37;;;;;;;14.23;8.13;;;19.00;99.90;;;;;;5109634;22;20044;-77
2021/08/05 07:03:03;;;;;;;9.68;6.88;;;19.10;99.90;;;;;;5096412;28;20374;-76
2021/08/05 07:05:29;;;;;;;11.95;6.72;;;19.30;99.90;;;;;;5078167;28;20031;-78
2021/08/05 07:07:55;;;;;;;9.30;4.95;;;19.40;99.90;;;;;;5077996;28;20028;-79
2021/08/05 07:10:22;;;;;;;7.97;5.53;;;19.50;99.90;;;;;;5077984;28;20030;-79
2021/08/05 07:12:48;;;;;;;8.10;5.40;;;19.40;99.90;;;;;;5077884;28;20032;-78
2021/08/05 07:15:13;;;;;;;8.85;5.50;;;19.40;99.90;;;;;;5095728;28;20439;-76
2021/08/05 07:17:44;;;;;;;7.90;5.40;;;19.40;99.90;;;;;;5095000;28;20020;-76
2021/08/05 07:20:11;;;;;;;7.82;5.40;;;19.40;99.90;;;;;;5077598;28;20082;-75
2021/08/05 07:22:38;;;;;;;8.52;5.57;;;19.40;99.90;;;;;;5095479;28;20024;-76
2021/08/05 07:25:05;;;;;;;6.70;4.70;;;19.50;99.90;;;;;;5095385;28;20024;-77
2021/08/05 07:27:31;;;;;;;6.78;4.22;;;19.50;99.90;;;;;;5077989;28;20024;-77
2021/08/05 07:29:56;;;;;;;7.60;5.60;;;19.60;99.90;;;;;;5095920;28;20111;-78
2021/08/05 07:32:22;;;;;;;7.38;5.75;;;19.70;99.90;;;;;;5090225;22;20185;-78
2021/08/05 07:34:48;;;;;;;8.68;5.95;;;19.80;99.90;;;;;;5096739;28;20105;-79
2021/08/05 07:37:13;;;;;;;8.65;6.00;;;19.80;99.90;;;;;;5077357;28;20017;-75
2021/08/05 07:39:39;;;;;;;8.48;5.65;;;20.80;99.90;;;;;;5077802;28;20020;-76
2021/08/05 07:42:04;;;;;;;5.57;4.25;;;20.00;99.90;;;;;;5095682;28;20031;-76
2021/08/05 07:44:30;;;;;;;11.18;5.95;;;20.10;99.90;;;;;;5095703;28;20028;-77
2021/08/05 07:46:56;;;;;;;7.88;5.10;;;20.40;99.90;;;;;;5095877;28;20016;-76
2021/08/05 07:49:21;;;;;;;7.13;5.57;;;20.50;99.90;;;;;;5095130;28;20020;-78
2021/08/05 07:51:47;;;;;;;11.38;6.47;;;20.60;99.90;;;;;;5095107;28;20424;-77
2021/08/05 07:54:12;;;;;;;8.18;6.03;;;20.70;99.90;;;;;;5095796;28;20446;-76
2021/08/05 07:56:38;;;;;;;7.88;5.05;;;20.80;99.90;;;;;;5095367;28;20024;-76
2021/08/05 07:59:03;;;;;;;8.10;5.30;;;20.90;99.90;;;;;;5076481;28;20020;-76
2021/08/05 08:01:29;;;;;;;8.88;6.25;;;21.00;99.90;;;;;;5094978;28;20021;-76
2021/08/05 08:03:55;;;;;;;10.50;5.70;;;21.10;99.90;;;;;;5076800;28;20473;-78
2021/08/05 08:06:21;;;;;;;8.43;5.78;;;21.20;99.90;;;;;;5094961;28;20024;-75
2021/08/05 08:08:48;;;;;;;9.52;6.15;;;21.40;99.90;;;;;;5094870;28;20017;-76
2021/08/05 08:11:15;;;;;;;9.82;6.05;;;21.50;99.90;;;;;;5095183;28;20088;-77
2021/08/05 08:13:41;;;;;;;9.23;5.22;;;21.60;99.90;;;;;;5076683;28;20056;-77
2021/08/05 08:16:06;;;;;;;10.85;6.60;;;21.70;99.90;;;;;;5095039;28;20024;-75
2021/08/05 08:18:33;;;;;;;11.00;6.97;;;21.90;99.90;;;;;;5095696;28;20024;-78
2021/08/05 08:20:59;;;;;;;8.65;5.90;;;22.00;99.90;;;;;;5095371;28;20535;-78
2021/08/05 08:23:26;;;;;;;7.05;4.57;;;22.10;99.90;;;;;;5077061;28;20024;-78
2021/08/05 08:25:51;;;;;;;7.05;5.15;;;22.10;99.90;;;;;;5095188;28;20409;-78
2021/08/05 08:28:17;;;;;;;8.40;5.47;;;22.20;99.90;;;;;;5075453;28;20020;-78
2021/08/05 08:30:43;;;;;;;8.50;5.50;;;22.20;99.90;;;;;;5076328;28;20035;-78
2021/08/05 08:33:08;;;;;;;9.70;5.00;;;22.30;99.90;;;;;;5076178;28;20474;-78
2021/08/05 08:35:34;;;;;;;6.65;4.95;;;22.40;99.90;;;;;;5095161;28;20141;-78
2021/08/05 08:37:59;;;;;;;9.40;5.57;;;22.50;99.90;;;;;;5076406;28;20028;-78
2021/08/05 08:40:25;;;;;;;6.63;4.60;;;22.50;99.90;;;;;;5094825;28;20031;-78
2021/08/05 08:42:51;;;;;;;8.68;5.60;;;22.50;99.90;;;;;;5094553;28;20047;-78
2021/08/05 08:45:17;;;;;;;8.48;4.93;;;22.50;99.90;;;;;;5094147;28;20036;-78
2021/08/05 08:47:50;;;;;;;7.55;5.28;;;22.50;99.90;;;;;;5094267;28;20027;-79
2021/08/05 08:50:16;;;;;;;6.78;4.45;;;22.60;99.90;;;;;;5075989;28;20436;-77
2021/08/05 08:52:45;;;;;;;7.88;5.00;;;22.60;99.90;;;;;;5094324;28;20016;-76
2021/08/05 08:55:12;;;;;;;6.68;4.95;;;22.60;99.90;;;;;;5075748;28;20020;-76
2021/08/05 08:57:38;;;;;;;7.68;4.95;;;22.60;99.90;;;;;;5094289;28;20107;-76
2021/08/05 09:00:06;;;;;;;5.13;3.92;;;22.70;99.90;;;;;;5094265;28;20031;-75
2021/08/05 09:02:33;;;;;;;7.38;5.28;;;22.60;99.90;;;;;;5093954;28;20031;-77
2021/08/05 09:04:59;;;;;;;6.47;3.78;;;22.60;99.90;;;;;;5093625;28;20035;-76
2021/08/05 09:07:24;;;;;;;6.55;4.95;;;22.70;99.90;;;;;;5094119;28;20140;-79
2021/08/05 09:09:51;;;;;;;5.03;3.42;;;22.80;99.90;;;;;;5094264;28;20529;-76
2021/08/05 09:12:17;;;;;;;4.93;4.00;;;23.00;99.90;;;;;;5094099;28;20150;-75
2021/08/05 09:14:49;;;;;;;5.65;4.25;;;23.10;99.90;;;;;;5093599;28;20021;-76
2021/08/05 09:17:21;;;;;;;5.13;3.67;;;23.20;99.90;;;;;;5075341;28;20016;-75
2021/08/05 09:19:50;;;;;;;3.95;2.85;;;23.30;99.90;;;;;;5094070;28;20371;-76
2021/08/05 09:22:40;;;;;;;6.35;4.07;;;23.20;99.90;;;;;;5075357;28;20024;-76
2021/08/05 09:25:24;;;;;;;6.75;4.47;;;23.30;99.90;;;;;;5094312;28;20524;-76
2021/08/05 09:27:52;;;;;;;8.15;4.28;;;23.40;99.90;;;;;;5093885;28;20116;-78
2021/08/05 09:30:31;;;;;;;7.10;3.80;;;23.40;99.40;;;;;;5093863;28;20526;-76
2021/08/05 09:33:28;;;;;;;4.47;2.75;;;23.40;99.90;;;;;;5093642;28;20024;-77
2021/08/05 09:35:54;;;;;;;5.35;3.05;;;23.50;99.90;;;;;;5077965;28;20040;-76
2021/08/05 09:38:25;;;;;;;4.75;3.25;;;23.50;99.90;;;;;;5093814;28;20021;-76
2021/08/05 09:40:52;;;;;;;4.82;2.95;;;23.50;99.60;;;;;;5096945;28;20016;-77
2021/08/05 09:43:26;;;;;;;4.03;3.03;;;23.60;99.80;;;;;;5097705;28;20032;-76
2021/08/05 09:45:52;;;;;;;5.47;3.38;;;23.40;99.90;;;;;;5110338;22;20055;-76
2021/08/05 09:48:42;;;;;;;6.13;3.35;;;23.60;99.90;;;;;;5079161;28;20396;-76
2021/08/05 09:51:18;;;;;;;5.72;3.40;;;23.70;99.80;;;;;;5097349;28;20043;-75
2021/08/05 09:54:00;;;;;;;3.35;2.33;;;24.00;99.60;;;;;;5097616;28;20030;-76
2021/08/05 09:56:27;;;;;;;2.50;1.98;;;24.20;98.60;;;;;;5079233;28;20515;-76
2021/08/05 09:59:02;;;;;;;5.70;2.40;;;24.40;96.70;;;;;;5096911;28;20023;-76
2021/08/05 10:01:28;;;;;;;4.15;2.60;;;24.50;95.50;;;;;;5078853;28;20032;-77
2021/08/05 10:03:53;;;;;;;2.60;2.05;;;24.50;92.80;;;;;;5079628;28;20016;-75
2021/08/05 10:06:21;;;;;;;3.08;2.30;;;24.60;93.60;;;;;;5079682;28;20384;-76
2021/08/05 10:08:46;;;;;;;3.17;1.97;;;24.70;91.20;;;;;;5097398;28;20024;-79
2021/08/05 10:11:12;;;;;;;2.67;2.17;;;24.70;91.80;;;;;;5079771;28;20695;-75
2021/08/05 10:13:40;;;;;;;4.30;2.53;;;24.70;89.30;;;;;;5078428;28;20085;-76
2021/08/05 10:16:08;;;;;;;3.83;2.08;;;24.80;90.20;;;;;;5098359;28;20027;-78
2021/08/05 10:18:35;;;;;;;5.13;2.57;;;24.90;90.30;;;;;;5098182;28;20438;-77
2021/08/05 10:21:07;;;;;;;2.15;1.33;;;25.00;86.50;;;;;;5080251;28;20054;-78
2021/08/05 10:23:35;;;;;;;1.75;1.25;;;25.00;86.10;;;;;;5079868;28;20058;-78
2021/08/05 10:26:07;;;;;;;2.90;2.10;;;25.30;88.70;;;;;;5097266;28;20537;-78
2021/08/05 10:28:34;;;;;;;2.67;1.52;;;25.40;84.30;;;;;;5079290;28;20106;-78
2021/08/05 10:31:01;;;;;;;2.22;1.00;;;25.50;83.50;;;;;;5078741;28;20024;-78
2021/08/05 10:33:26;;;;;;;1.98;1.45;;;25.70;82.60;;;;;;5097232;28;20032;-78
2021/08/05 10:35:53;;;;;;;2.78;1.27;;;25.90;82.20;;;;;;5078955;28;20030;-78
2021/08/05 10:38:21;;;;;;;2.35;1.90;;;26.10;82.80;;;;;;5097064;28;20069;-78
2021/08/05 10:40:49;;;;;;;2.58;2.13;;;27.00;79.90;;;;;;5097425;28;20026;-78
2021/08/05 10:43:15;;;;;;;2.10;1.60;;;26.30;76.80;;;;;;5097114;28;20470;-78
2021/08/05 10:45:41;;;;;;;3.25;2.22;;;25.90;75.90;;;;;;5078944;28;20035;-75
2021/08/05 10:48:09;;;;;;;6.45;2.80;;;25.70;77.10;;;;;;5096522;28;20477;-76
2021/08/05 10:50:43;;;;;;;3.07;2.60;;;25.50;78.20;;;;;;5095884;28;20027;-77
2021/08/05 10:53:15;;;;;;;2.70;2.47;;;25.30;82.60;;;;;;5096365;28;20027;-78
2021/08/05 10:55:41;;;;;;;6.63;3.08;;;25.10;85.30;;;;;;5097017;28;20020;-76
2021/08/05 10:58:17;;;;;;;5.72;3.63;;;24.90;85.50;;;;;;5096243;28;20047;-76
2021/08/05 11:00:49;;;;;;;4.40;2.92;;;24.70;85.40;;;;;;5096709;28;20028;-75
2021/08/05 11:03:40;;;;;;;4.38;3.30;;;24.70;88.00;;;;;;5095910;28;20366;-76
2021/08/05 11:06:07;;;;;;;8.15;4.85;;;24.70;87.80;;;;;;5096843;28;20074;-77
2021/08/05 11:08:34;;;;;;;9.13;5.30;;;24.80;88.20;;;;;;5077819;28;20020;-77
2021/08/05 11:11:21;;;;;;;10.38;6.18;;;24.80;87.60;;;;;;5109244;22;20052;-76
2021/08/05 11:13:59;;;;;;;6.13;4.63;;;25.00;87.00;;;;;;5095873;28;20374;-78
2021/08/05 11:16:52;;;;;;;7.90;5.80;;;25.00;86.30;;;;;;5095907;28;20136;-75
2021/08/05 11:19:22;;;;;;;7.07;4.38;;;25.00;86.20;;;;;;5078160;28;20028;-75
2021/08/05 11:21:48;;;;;;;7.03;3.72;;;25.20;84.90;;;;;;5077416;28;20016;-75
2021/08/05 11:24:42;;;;;;;6.88;4.43;;;25.40;82.00;;;;;;5096318;28;20051;-78
2021/08/05 11:27:15;;;;;;;6.75;4.20;;;25.50;82.40;;;;;;5077119;28;20445;-76
2021/08/05 11:29:41;;;;;;;6.18;4.43;;;25.50;81.70;;;;;;5077099;28;20020;-76
2021/08/05 11:32:22;;;;;;;6.63;4.75;;;25.60;81.90;;;;;;5077583;28;20393;-76
2021/08/05 11:35:05;;;;;;;4.35;2.78;;;25.60;81.10;;;;;;5095349;28;20024;-78
2021/08/05 11:37:32;;;;;;;4.82;3.03;;;25.50;81.60;;;;;;5095442;28;20550;-77
2021/08/05 11:39:59;;;;;;;6.47;3.40;;;25.30;75.50;;;;;;5077442;28;20503;-79
2021/08/05 11:42:27;;;;;;;5.50;4.25;;;24.90;75.00;;;;;;5096621;28;20024;-79
2021/08/05 11:44:59;;;;;;;6.82;3.35;;;24.70;75.70;;;;;;5131759;22;20052;-76
2021/08/05 11:47:34;;;;;;;6.97;4.68;;;24.40;80.30;;;;;;5095627;28;20016;-79
2021/08/05 11:50:02;;;;;;;5.30;3.22;;;24.00;81.50;;;;;;5095769;28;20100;-79
2021/08/05 11:52:28;;;;;;;6.32;4.30;;;23.90;84.30;;;;;;5057937;28;20500;-76
2021/08/05 11:54:56;;;;;;;5.35;4.05;;;23.80;87.30;;;;;;5093126;22;20036;-76
2021/08/05 11:57:22;;;;;;;6.03;4.55;;;23.90;89.10;;;;;;5094816;28;20024;-78
2021/08/05 11:59:50;;;;;;;7.40;5.40;;;23.90;89.30;;;;;;5095027;28;20027;-76
2021/08/05 12:02:19;;;;;;;9.52;6.93;;;24.00;88.50;;;;;;5094835;28;20020;-77
2021/08/05 12:04:45;;;;;;;6.70;4.25;;;24.00;89.20;;;;;;5107676;22;20044;-75
2021/08/05 12:07:37;;;;;;;9.75;4.90;;;24.10;90.80;;;;;;5095326;28;20018;-77
2021/08/05 12:10:20;;;;;;;8.73;4.90;;;24.40;89.60;;;;;;5094897;28;20024;-76
2021/08/05 12:12:54;;;;;;;9.77;6.10;;;24.80;89.50;;;;;;5089432;22;20398;-76
2021/08/05 12:15:29;;;;;;;13.70;6.20;;;25.00;86.40;;;;;;5076297;28;20051;-77
2021/08/05 12:17:59;;;;;;;8.25;6.05;;;25.10;88.00;;;;;;5095102;28;20019;-77
2021/08/05 12:20:32;;;;;;;6.30;4.05;;;25.40;83.90;;;;;;5095099;28;20017;-77
2021/08/05 12:23:02;;;;;;;9.43;4.93;;;25.90;85.60;;;;;;5094883;28;20024;-75
2021/08/05 12:25:32;;;;;;;7.95;5.35;;;26.50;80.00;;;;;;5075812;28;20024;-75
2021/08/05 12:28:00;;;;;;;8.05;5.35;;;26.80;80.30;;;;;;5094379;28;20035;-75
2021/08/05 12:30:38;;;;;;;8.48;5.20;;;26.60;77.20;;;;;;5093970;28;20409;-75
2021/08/05 12:33:10;;;;;;;9.82;5.47;;;26.30;78.30;;;;;;5093966;28;20490;-75
2021/08/05 12:35:36;;;;;;;6.75;3.90;;;26.00;75.50;;;;;;5093791;28;20024;-75
2021/08/05 12:38:10;;;;;;;9.50;4.53;;;25.80;78.20;;;;;;5075531;28;20063;-75
2021/08/05 12:40:47;;;;;;;5.68;3.80;;;26.10;75.10;;;;;;5075748;28;20044;-75
2021/08/05 12:43:13;;;;;;;7.90;4.93;;;26.80;75.20;;;;;;5094295;28;20028;-75
2021/08/05 12:45:43;;;;;;;6.88;4.28;;;27.40;68.50;;;;;;5075648;28;20028;-75
2021/08/05 12:48:09;;;;;;;4.75;3.13;;;27.80;68.60;;;;;;5075493;28;20390;-75
2021/08/05 12:50:53;;;;;;;5.18;3.53;;;28.10;66.80;;;;;;5075487;28;20023;-75